createdAt,value
2018-03-21T00:00:21.246Z,10.98
2018-03-21T00:02:48.691Z,11.48
2018-03-21T00:05:16.074Z,11.10
2018-03-21T00:07:43.481Z,13.23
2018-03-21T00:10:10.879Z,12.45
2018-03-21T00:12:38.347Z,11.95
2018-03-21T00:15:05.705Z,15.43
2018-03-21T00:17:33.105Z,11.10
2018-03-21T00:20:00.510Z,12.70
2018-03-21T00:22:27.899Z,11.30
2018-03-21T00:24:55.293Z,11.25
2018-03-21T00:27:22.713Z,11.43
2018-03-21T00:29:50.096Z,11.12
2018-03-21T00:32:17.490Z,12.13
2018-03-21T00:34:44.887Z,15.20
2018-03-21T00:37:12.300Z,12.18
2018-03-21T00:39:39.684Z,10.77
2018-03-21T00:42:07.077Z,10.85
2018-03-21T00:44:34.468Z,10.55
2018-03-21T00:47:01.879Z,12.25
2018-03-21T00:49:29.271Z,11.02
2018-03-21T00:51:56.671Z,10.95
2018-03-21T00:54:24.051Z,10.70
2018-03-21T00:56:51.447Z,11.98
2018-03-21T00:59:18.850Z,10.52
2018-03-21T01:01:46.238Z,10.93
2018-03-21T01:04:13.630Z,10.15
2018-03-21T01:06:41.027Z,11.43
2018-03-21T01:09:08.418Z,11.30
2018-03-21T01:11:35.826Z,11.77
2018-03-21T01:14:03.222Z,10.80
2018-03-21T01:16:30.610Z,11.00
2018-03-21T01:18:58.002Z,12.23
2018-03-21T01:21:25.409Z,10.85
2018-03-21T01:23:52.814Z,12.30
2018-03-21T01:26:20.197Z,14.15
2018-03-21T01:28:47.599Z,13.68
2018-03-21T01:31:14.990Z,13.75
2018-03-21T01:33:42.400Z,16.10
2018-03-21T01:36:09.795Z,16.35
2018-03-21T01:38:37.193Z,19.77
2018-03-21T01:41:04.586Z,18.85
2018-03-21T01:43:32.356Z,23.73
2018-03-21T01:45:59.747Z,18.77
2018-03-21T01:48:27.142Z,14.50
2018-03-21T01:50:54.534Z,17.45
2018-03-21T01:53:21.941Z,13.62
2018-03-21T01:55:49.323Z,12.57
2018-03-21T01:58:16.713Z,11.90
2018-03-21T02:00:44.113Z,12.75
2018-03-21T02:03:11.511Z,11.27
2018-03-21T02:05:38.922Z,12.25
2018-03-21T02:08:06.314Z,11.88
2018-03-21T02:10:33.706Z,11.12
2018-03-21T02:13:01.111Z,11.12
2018-03-21T02:15:28.498Z,11.35
2018-03-21T02:17:55.894Z,12.10
2018-03-21T02:20:23.307Z,11.68
2018-03-21T02:22:50.707Z,11.80
2018-03-21T02:25:18.106Z,11.45
2018-03-21T02:27:45.502Z,12.15
2018-03-21T02:30:12.914Z,11.40
2018-03-21T02:32:40.312Z,12.65
2018-03-21T02:35:07.712Z,12.45
2018-03-21T02:37:35.102Z,12.43
2018-03-21T02:40:02.501Z,12.23
2018-03-21T02:42:29.898Z,12.50
2018-03-21T02:44:57.298Z,14.60
2018-03-21T02:47:24.700Z,12.88
2018-03-21T02:49:52.101Z,11.65
2018-03-21T02:52:19.560Z,12.43
2018-03-21T02:54:46.962Z,12.43
2018-03-21T02:57:14.358Z,12.23
2018-03-21T02:59:41.759Z,12.75
2018-03-21T03:02:09.173Z,12.27
2018-03-21T03:04:36.564Z,12.48
2018-03-21T03:07:03.973Z,12.85
2018-03-21T03:09:31.390Z,12.43
2018-03-21T03:11:58.783Z,12.07
2018-03-21T03:14:26.170Z,13.27
2018-03-21T03:16:53.565Z,13.45
2018-03-21T03:19:20.967Z,13.15
2018-03-21T03:21:48.361Z,12.95
2018-03-21T03:24:15.769Z,12.45
2018-03-21T03:26:43.164Z,12.55
2018-03-21T03:29:10.567Z,13.80
2018-03-21T03:31:37.981Z,13.02
2018-03-21T03:34:05.377Z,13.00
2018-03-21T03:36:32.766Z,11.95
2018-03-21T03:39:00.163Z,13.20
2018-03-21T03:41:27.575Z,12.88
2018-03-21T03:43:54.966Z,11.90
2018-03-21T03:46:22.373Z,13.00
2018-03-21T03:48:50.081Z,12.80
2018-03-21T03:51:17.489Z,10.95
2018-03-21T03:53:44.878Z,13.10
2018-03-21T03:56:12.308Z,12.95
2018-03-21T03:58:39.701Z,12.43
2018-03-21T04:01:07.099Z,12.00
2018-03-21T04:03:34.514Z,14.52
2018-03-21T04:06:01.911Z,11.85
2018-03-21T04:08:29.314Z,12.52
2018-03-21T04:10:56.727Z,12.20
2018-03-21T04:13:24.130Z,13.02
2018-03-21T04:15:51.529Z,13.48
2018-03-21T04:18:19.211Z,12.85
2018-03-21T04:20:46.605Z,13.02
2018-03-21T04:23:14.020Z,16.08
2018-03-21T04:25:41.403Z,16.60
2018-03-21T04:28:08.801Z,12.70
2018-03-21T04:30:36.205Z,14.75
2018-03-21T04:33:03.645Z,13.57
2018-03-21T04:35:31.042Z,14.00
2018-03-21T04:37:58.453Z,13.07
2018-03-21T04:40:25.858Z,12.40
2018-03-21T04:42:53.259Z,12.23
2018-03-21T04:45:20.659Z,12.60
2018-03-21T04:47:48.057Z,12.05
2018-03-21T04:50:15.461Z,13.25
2018-03-21T04:52:42.862Z,30.25
2018-03-21T04:55:10.261Z,13.85
2018-03-21T04:57:37.674Z,13.93
2018-03-21T05:00:05.066Z,12.10
2018-03-21T05:02:32.465Z,15.70
2018-03-21T05:04:59.862Z,12.88
2018-03-21T05:07:27.257Z,14.77
2018-03-21T05:09:54.657Z,11.45
2018-03-21T05:12:22.048Z,11.98
2018-03-21T05:14:49.457Z,12.05
2018-03-21T05:17:16.853Z,11.55
2018-03-21T05:19:44.256Z,14.95
2018-03-21T05:22:11.654Z,19.85
2018-03-21T05:24:39.139Z,11.45
2018-03-21T05:27:06.523Z,12.65
2018-03-21T05:29:33.948Z,12.90
2018-03-21T05:32:01.385Z,11.50
2018-03-21T05:34:28.773Z,9.90
2018-03-21T05:36:56.183Z,12.73
2018-03-21T05:39:23.583Z,12.57
2018-03-21T05:41:51.049Z,12.98
2018-03-21T05:44:18.473Z,12.93
2018-03-21T05:46:45.920Z,11.73
2018-03-21T05:49:13.326Z,12.20
2018-03-21T05:51:41.545Z,14.00
2018-03-21T05:54:08.966Z,12.02
2018-03-21T05:56:36.363Z,11.93
2018-03-21T05:59:03.763Z,15.80
2018-03-21T06:01:31.154Z,12.13
2018-03-21T06:03:58.554Z,11.25
2018-03-21T06:06:25.950Z,15.82
2018-03-21T06:08:53.725Z,13.30
2018-03-21T06:11:21.118Z,12.57
2018-03-21T06:13:48.535Z,10.48
2018-03-21T06:16:15.937Z,11.98
2018-03-21T06:18:43.334Z,11.43
2018-03-21T06:21:10.737Z,11.12
2018-03-21T06:23:38.141Z,10.93
2018-03-21T06:26:05.527Z,12.48
2018-03-21T06:28:32.924Z,11.95
2018-03-21T06:31:00.341Z,12.90
2018-03-21T06:33:27.750Z,11.77
2018-03-21T06:35:55.146Z,13.60
2018-03-21T06:38:22.548Z,12.30
2018-03-21T06:40:49.955Z,11.77
2018-03-21T06:43:17.361Z,14.10
2018-03-21T06:45:44.766Z,11.52
2018-03-21T06:48:12.157Z,14.73
2018-03-21T06:50:39.565Z,13.65
2018-03-21T06:53:06.961Z,14.48
2018-03-21T06:55:34.367Z,17.25
2018-03-21T06:58:01.760Z,15.43
2018-03-21T07:00:29.162Z,14.80
2018-03-21T07:02:56.558Z,14.77
2018-03-21T07:05:23.984Z,16.15
2018-03-21T07:07:51.366Z,13.70
2018-03-21T07:10:18.770Z,19.00
2018-03-21T07:12:46.170Z,19.87
2018-03-21T07:15:25.334Z,15.60
2018-03-21T07:17:52.733Z,17.27
2018-03-21T07:20:20.132Z,22.80
2018-03-21T07:22:47.529Z,23.30
2018-03-21T07:25:14.961Z,18.25
2018-03-21T07:27:42.362Z,19.60
2018-03-21T07:30:09.763Z,19.27
2018-03-21T07:32:37.162Z,17.87
2018-03-21T07:35:04.562Z,17.37
2018-03-21T07:37:31.957Z,17.90
2018-03-21T07:39:59.358Z,18.85
2018-03-21T07:42:26.751Z,17.42
2018-03-21T07:44:54.162Z,24.40
2018-03-21T07:47:21.552Z,22.15
2018-03-21T07:49:48.971Z,28.15
2018-03-21T07:52:16.358Z,34.53
2018-03-21T07:54:43.810Z,30.08
2018-03-21T07:57:11.207Z,34.70
2018-03-21T07:59:38.611Z,45.12
2018-03-21T08:02:06.007Z,39.50
2018-03-21T08:04:33.412Z,54.20
2018-03-21T08:07:00.797Z,58.25
2018-03-21T08:09:28.199Z,78.25
2018-03-21T08:11:55.595Z,62.97
2018-03-21T08:14:23.022Z,70.65
2018-03-21T08:16:50.437Z,79.62
2018-03-21T08:19:17.830Z,99.20
2018-03-21T08:21:45.234Z,122.28
2018-03-21T08:24:12.633Z,109.10
2018-03-21T08:26:40.434Z,118.90
2018-03-21T08:29:07.840Z,124.05
2018-03-21T08:31:35.253Z,116.03
2018-03-21T08:34:02.676Z,117.20
2018-03-21T08:36:31.084Z,115.05
2018-03-21T08:38:58.489Z,108.25
2018-03-21T08:41:25.984Z,129.50
2018-03-21T08:43:53.402Z,119.65
2018-03-21T08:46:20.831Z,113.43
2018-03-21T08:48:48.278Z,103.95
2018-03-21T08:51:15.691Z,109.47
2018-03-21T08:53:43.113Z,113.53
2018-03-21T08:56:10.509Z,98.82
2018-03-21T08:58:37.906Z,111.28
2018-03-21T09:01:05.302Z,115.15
2018-03-21T09:03:32.710Z,121.55
2018-03-21T09:06:00.116Z,120.43
2018-03-21T09:08:27.518Z,123.43
2018-03-21T09:10:54.921Z,106.28
2018-03-21T09:13:22.344Z,102.18
2018-03-21T09:15:49.741Z,86.87
2018-03-21T09:18:17.161Z,93.03
2018-03-21T09:20:44.533Z,94.90
2018-03-21T09:23:12.566Z,110.72
2018-03-21T09:25:40.001Z,113.62
2018-03-21T09:28:07.666Z,104.50
2018-03-21T09:30:35.091Z,98.25
2018-03-21T09:33:02.531Z,87.37
2018-03-21T09:35:29.926Z,84.37
2018-03-21T09:37:57.375Z,68.60
2018-03-21T09:40:24.804Z,71.97
2018-03-21T09:42:52.182Z,72.50
2018-03-21T09:45:19.626Z,65.70
2018-03-21T09:47:47.036Z,55.88
2018-03-21T09:50:14.458Z,62.80
2018-03-21T09:52:41.855Z,64.35
2018-03-21T09:55:09.276Z,55.65
2018-03-21T09:57:36.731Z,60.85
2018-03-21T10:00:04.082Z,55.65
2018-03-21T10:02:31.489Z,54.75
2018-03-21T10:04:58.931Z,49.17
2018-03-21T10:07:26.337Z,48.25
2018-03-21T10:09:53.770Z,43.15
2018-03-21T10:12:21.147Z,48.38
2018-03-21T10:14:48.554Z,44.35
2018-03-21T10:17:15.955Z,42.62
2018-03-21T10:19:43.345Z,38.92
2018-03-21T10:22:10.767Z,42.13
2018-03-21T10:24:38.174Z,45.38
2018-03-21T10:27:05.586Z,43.33
2018-03-21T10:29:32.995Z,44.97
2018-03-21T10:32:00.402Z,35.58
2018-03-21T10:34:27.822Z,39.45
2018-03-21T10:36:55.250Z,41.60
2018-03-21T10:39:22.649Z,52.92
2018-03-21T10:41:50.056Z,47.10
2018-03-21T10:44:17.460Z,46.30
2018-03-21T10:46:44.882Z,46.65
2018-03-21T10:49:12.290Z,49.45
2018-03-21T10:51:39.721Z,48.17
2018-03-21T10:54:07.127Z,44.83
2018-03-21T10:56:34.566Z,41.20
2018-03-21T10:59:01.981Z,31.85
2018-03-21T11:01:34.954Z,36.22
2018-03-21T11:04:02.356Z,35.25
2018-03-21T11:06:29.759Z,36.50
2018-03-21T11:08:57.160Z,33.95
2018-03-21T11:11:24.572Z,41.33
2018-03-21T11:13:52.006Z,39.80
2018-03-21T11:16:19.397Z,40.33
2018-03-21T11:18:46.895Z,35.00
2018-03-21T11:21:14.321Z,33.58
2018-03-21T11:23:41.745Z,37.63
2018-03-21T11:26:09.180Z,41.78
2018-03-21T11:28:36.595Z,34.08
2018-03-21T11:31:07.166Z,36.80
2018-03-21T11:33:34.617Z,40.40
2018-03-21T11:36:02.030Z,42.10
2018-03-21T11:38:29.426Z,43.75
2018-03-21T11:40:56.818Z,35.90
2018-03-21T11:43:24.222Z,44.35
2018-03-21T11:45:51.639Z,41.13
2018-03-21T11:48:19.045Z,37.78
2018-03-21T11:50:46.446Z,32.50
2018-03-21T11:53:13.834Z,37.30
2018-03-21T11:55:41.246Z,37.90
2018-03-21T11:58:08.654Z,31.35
2018-03-21T12:00:36.062Z,38.80
2018-03-21T12:03:03.467Z,34.83
2018-03-21T12:05:30.878Z,42.75
2018-03-21T12:07:58.274Z,36.45
2018-03-21T12:10:25.686Z,40.10
2018-03-21T12:12:53.086Z,38.00
2018-03-21T12:15:20.490Z,36.37
2018-03-21T12:17:47.874Z,36.27
2018-03-21T12:20:15.262Z,33.10
2018-03-21T12:22:42.666Z,33.15
2018-03-21T12:25:10.060Z,34.50
2018-03-21T12:27:37.462Z,39.27
2018-03-21T12:30:04.853Z,36.23
2018-03-21T12:32:32.246Z,36.87
2018-03-21T12:34:59.644Z,32.80
2018-03-21T12:37:27.037Z,34.93
2018-03-21T12:39:54.437Z,35.70
2018-03-21T12:42:21.832Z,38.97
2018-03-21T12:44:49.289Z,37.23
2018-03-21T12:47:16.630Z,36.73
2018-03-21T12:49:44.026Z,37.73
2018-03-21T12:52:11.443Z,36.70
2018-03-21T12:54:38.834Z,30.30
2018-03-21T12:57:06.233Z,30.73
2018-03-21T12:59:33.627Z,36.13
2018-03-21T13:02:01.022Z,33.13
2018-03-21T13:04:28.421Z,32.63
2018-03-21T13:06:55.802Z,31.10
2018-03-21T13:09:23.207Z,31.57
2018-03-21T13:11:50.594Z,31.77
2018-03-21T13:14:17.995Z,28.93
2018-03-21T13:16:45.384Z,34.33
2018-03-21T13:19:12.774Z,39.77
2018-03-21T13:21:40.175Z,30.93
2018-03-21T13:24:07.577Z,29.37
2018-03-21T13:26:34.974Z,39.97
2018-03-21T13:29:02.376Z,29.57
2018-03-21T13:31:29.757Z,33.83
2018-03-21T13:33:57.154Z,31.87
2018-03-21T13:36:24.562Z,33.87
2018-03-21T13:38:51.963Z,28.93
2018-03-21T13:41:19.350Z,25.87
2018-03-21T13:43:46.770Z,26.93
2018-03-21T13:46:14.180Z,30.73
2018-03-21T13:48:41.572Z,23.17
2018-03-21T13:51:08.973Z,21.93
2018-03-21T13:53:36.365Z,30.67
2018-03-21T13:56:03.774Z,23.27
2018-03-21T13:58:31.157Z,25.07
2018-03-21T14:00:58.558Z,28.03
2018-03-21T14:03:25.949Z,27.60
2018-03-21T14:05:53.345Z,22.37
2018-03-21T14:08:20.741Z,22.53
2018-03-21T14:10:48.138Z,21.90
2018-03-21T14:13:15.530Z,29.07
2018-03-21T14:15:42.925Z,28.43
2018-03-21T14:18:10.322Z,27.60
2018-03-21T14:20:37.717Z,23.50
2018-03-21T14:23:05.110Z,24.33
2018-03-21T14:25:32.514Z,21.57
2018-03-21T14:27:59.917Z,22.27
2018-03-21T14:30:27.314Z,19.63
2018-03-21T14:32:54.731Z,24.03
2018-03-21T14:35:22.118Z,23.63
2018-03-21T14:37:49.509Z,23.40
2018-03-21T14:40:16.920Z,28.03
2018-03-21T14:42:44.312Z,22.10
2018-03-21T14:45:11.698Z,25.63
2018-03-21T14:47:39.093Z,25.03
2018-03-21T14:50:06.868Z,25.97
2018-03-21T14:52:34.271Z,28.57
2018-03-21T14:55:01.658Z,28.07
2018-03-21T14:57:29.066Z,23.87
2018-03-21T14:59:56.457Z,20.60
2018-03-21T15:02:23.858Z,22.83
2018-03-21T15:04:51.255Z,22.70
2018-03-21T15:07:18.662Z,24.83
2018-03-21T15:09:46.057Z,23.80
2018-03-21T15:12:13.453Z,30.10
2018-03-21T15:14:40.842Z,23.93
2018-03-21T15:17:08.225Z,22.10
2018-03-21T15:19:35.621Z,29.30
2018-03-21T15:22:03.011Z,26.37
2018-03-21T15:24:30.409Z,27.43
2018-03-21T15:26:57.804Z,23.30
2018-03-21T15:29:25.201Z,26.00
2018-03-21T15:31:52.591Z,24.57
2018-03-21T15:34:19.988Z,23.07
2018-03-21T15:36:47.386Z,24.70
2018-03-21T15:39:14.793Z,21.80
2018-03-21T15:41:42.173Z,29.30
2018-03-21T15:44:09.754Z,23.23
2018-03-21T15:46:37.142Z,22.40
2018-03-21T15:49:04.561Z,22.80
2018-03-21T15:51:31.941Z,24.50
2018-03-21T15:53:59.335Z,26.23
2018-03-21T15:56:26.725Z,23.23
2018-03-21T15:58:54.125Z,22.07
2018-03-21T16:01:21.536Z,22.57
2018-03-21T16:03:48.933Z,23.83
2018-03-21T16:06:16.340Z,21.07
2018-03-21T16:08:43.729Z,24.60
2018-03-21T16:11:11.121Z,21.47
2018-03-21T16:13:38.530Z,17.33
2018-03-21T16:16:05.922Z,20.23
2018-03-21T16:18:33.321Z,19.63
2018-03-21T16:21:00.726Z,18.40
2018-03-21T16:23:28.134Z,21.80
2018-03-21T16:25:55.526Z,23.63
2018-03-21T16:28:22.978Z,16.63
2018-03-21T16:30:50.326Z,21.30
2018-03-21T16:33:17.713Z,22.73
2018-03-21T16:35:45.104Z,21.83
2018-03-21T16:38:12.507Z,21.10
2018-03-21T16:40:39.897Z,18.43
2018-03-21T16:43:07.295Z,19.77
2018-03-21T16:45:34.682Z,19.47
2018-03-21T16:48:02.076Z,20.33
2018-03-21T16:50:29.699Z,18.67
2018-03-21T16:52:57.130Z,18.80
2018-03-21T16:55:24.572Z,16.90
2018-03-21T16:57:51.967Z,21.80
2018-03-21T17:00:19.394Z,16.93
2018-03-21T17:02:47.222Z,18.90
2018-03-21T17:05:14.642Z,17.80
2018-03-21T17:07:42.074Z,17.20
2018-03-21T17:10:09.525Z,18.93
2018-03-21T17:12:36.965Z,17.47
2018-03-21T17:15:04.355Z,17.47
2018-03-21T17:17:32.370Z,19.13
2018-03-21T17:19:59.819Z,18.30
2018-03-21T17:22:27.217Z,19.27
2018-03-21T17:24:54.609Z,21.37
2018-03-21T17:27:21.998Z,19.40
2018-03-21T17:29:49.434Z,19.57
2018-03-21T17:32:16.810Z,21.70
2018-03-21T17:34:44.209Z,22.40
2018-03-21T17:37:11.608Z,19.37
2018-03-21T17:39:39.034Z,21.50
2018-03-21T17:42:06.402Z,17.80
2018-03-21T17:44:33.803Z,19.47
2018-03-21T17:47:01.190Z,24.57
2018-03-21T17:49:28.590Z,21.93
2018-03-21T17:51:55.974Z,19.43
2018-03-21T17:54:23.378Z,20.73
2018-03-21T17:56:50.766Z,19.43
2018-03-21T17:59:18.150Z,23.17
2018-03-21T18:01:45.569Z,19.90
2018-03-21T18:04:12.967Z,20.27
2018-03-21T18:06:40.361Z,20.67
2018-03-21T18:09:07.752Z,20.10
2018-03-21T18:11:35.166Z,20.00
2018-03-21T18:14:02.559Z,19.07
2018-03-21T18:16:29.958Z,19.67
2018-03-21T18:18:57.350Z,20.03
2018-03-21T18:21:24.741Z,23.60
2018-03-21T18:23:52.131Z,23.37
2018-03-21T18:26:19.534Z,24.30
2018-03-21T18:28:46.917Z,24.47
2018-03-21T18:31:14.346Z,22.20
2018-03-21T18:33:41.734Z,27.33
2018-03-21T18:36:09.138Z,31.43
2018-03-21T18:38:36.539Z,22.27
2018-03-21T18:41:03.956Z,27.50
2018-03-21T18:43:31.354Z,27.63
2018-03-21T18:45:58.750Z,25.10
2018-03-21T18:48:26.163Z,26.90
2018-03-21T18:50:53.562Z,24.98
2018-03-21T18:53:20.965Z,20.67
2018-03-21T18:55:48.354Z,27.98
2018-03-21T18:58:15.762Z,24.83
2018-03-21T19:00:43.162Z,26.70
2018-03-21T19:03:10.602Z,23.33
2018-03-21T19:05:37.998Z,25.92
2018-03-21T19:08:05.401Z,27.35
2018-03-21T19:10:32.802Z,25.60
2018-03-21T19:13:00.206Z,31.70
2018-03-21T19:15:27.598Z,28.90
2018-03-21T19:17:55.005Z,30.02
2018-03-21T19:20:22.402Z,28.35
2018-03-21T19:22:49.822Z,24.35
2018-03-21T19:25:17.283Z,26.33
2018-03-21T19:27:44.686Z,30.17
2018-03-21T19:30:12.095Z,33.53
2018-03-21T19:32:39.494Z,26.73
2018-03-21T19:35:06.897Z,25.48
2018-03-21T19:37:34.312Z,30.27
2018-03-21T19:40:01.714Z,22.70
2018-03-21T19:42:29.150Z,26.10
2018-03-21T19:44:56.554Z,23.87
2018-03-21T19:47:23.962Z,28.25
2018-03-21T19:49:51.370Z,24.17
2018-03-21T19:52:18.773Z,31.35
2018-03-21T19:54:46.178Z,29.77
2018-03-21T19:57:13.581Z,25.20
2018-03-21T19:59:40.981Z,28.40
2018-03-21T20:02:08.384Z,28.45
2018-03-21T20:04:35.781Z,25.77
2018-03-21T20:07:03.194Z,26.80
2018-03-21T20:09:30.598Z,27.77
2018-03-21T20:11:58.006Z,30.77
2018-03-21T20:14:25.423Z,27.60
2018-03-21T20:16:52.830Z,28.17
2018-03-21T20:19:20.241Z,30.85
2018-03-21T20:21:47.683Z,29.83
2018-03-21T20:24:15.097Z,30.65
2018-03-21T20:26:42.503Z,28.85
2018-03-21T20:29:10.031Z,33.85
2018-03-21T20:31:37.433Z,32.75
2018-03-21T20:34:04.825Z,27.23
2018-03-21T20:36:32.532Z,26.52
2018-03-21T20:39:01.020Z,30.02
2018-03-21T20:41:28.986Z,31.75
2018-03-21T20:43:56.482Z,34.75
2018-03-21T20:46:27.122Z,39.28
2018-03-21T20:48:54.523Z,34.00
2018-03-21T20:51:21.919Z,33.00
2018-03-21T20:53:49.324Z,34.95
2018-03-21T20:56:16.718Z,39.42
2018-03-21T20:58:44.123Z,32.08
2018-03-21T21:01:11.523Z,40.53
2018-03-21T21:03:38.926Z,41.22
2018-03-21T21:06:06.326Z,34.65
2018-03-21T21:08:33.729Z,31.92
2018-03-21T21:11:01.125Z,37.75
2018-03-21T21:13:28.522Z,34.42
2018-03-21T21:15:55.922Z,33.70
2018-03-21T21:18:23.347Z,33.20
2018-03-21T21:20:50.747Z,36.22
2018-03-21T21:23:18.142Z,39.85
2018-03-21T21:25:45.550Z,35.10
2018-03-21T21:28:12.937Z,35.08
2018-03-21T21:30:40.337Z,40.58
2018-03-21T21:33:07.738Z,36.22
2018-03-21T21:35:35.151Z,36.95
2018-03-21T21:38:02.551Z,36.15
2018-03-21T21:40:29.959Z,32.95
2018-03-21T21:42:57.353Z,37.55
2018-03-21T21:45:24.768Z,35.17
2018-03-21T21:47:52.157Z,33.95
2018-03-21T21:50:19.614Z,36.58
2018-03-21T21:52:47.388Z,38.25
2018-03-21T21:55:14.922Z,36.65
2018-03-21T21:57:42.309Z,32.40
2018-03-21T22:00:09.734Z,39.95
2018-03-21T22:02:37.137Z,37.30
2018-03-21T22:05:04.550Z,35.72
2018-03-21T22:07:31.958Z,40.60
2018-03-21T22:09:59.369Z,36.28
2018-03-21T22:12:26.770Z,35.38
2018-03-21T22:14:54.181Z,30.02
2018-03-21T22:17:21.571Z,35.03
2018-03-21T22:19:48.966Z,41.35
2018-03-21T22:22:16.367Z,37.78
2018-03-21T22:24:43.757Z,35.17
2018-03-21T22:27:11.156Z,33.40
2018-03-21T22:29:38.560Z,38.50
2018-03-21T22:32:05.950Z,37.92
2018-03-21T22:34:33.350Z,34.83
2018-03-21T22:37:00.750Z,35.83
2018-03-21T22:39:28.147Z,33.83
2018-03-21T22:41:55.549Z,40.25
2018-03-21T22:44:22.991Z,33.33
2018-03-21T22:46:50.393Z,38.63
2018-03-21T22:49:17.798Z,32.97
2018-03-21T22:51:45.204Z,45.47
2018-03-21T22:54:12.605Z,38.25
2018-03-21T22:56:40.006Z,38.38
2018-03-21T22:59:07.413Z,40.25
2018-03-21T23:01:34.818Z,39.53
2018-03-21T23:04:02.226Z,33.83
2018-03-21T23:06:29.629Z,36.13
2018-03-21T23:08:57.028Z,40.78
2018-03-21T23:11:24.426Z,40.80
2018-03-21T23:13:51.826Z,37.53
2018-03-21T23:16:19.222Z,36.67
2018-03-21T23:18:46.625Z,42.58
2018-03-21T23:21:14.018Z,33.67
2018-03-21T23:23:41.446Z,35.03
2018-03-21T23:26:08.842Z,34.08
2018-03-21T23:28:36.234Z,41.65
2018-03-21T23:31:03.637Z,36.28
2018-03-21T23:33:31.029Z,39.78
2018-03-21T23:35:58.430Z,40.30
2018-03-21T23:38:25.830Z,33.75
2018-03-21T23:40:53.233Z,39.35
2018-03-21T23:43:20.635Z,39.17
2018-03-21T23:45:48.035Z,40.28
2018-03-21T23:48:15.438Z,33.85
2018-03-21T23:50:42.846Z,34.67
2018-03-21T23:53:10.247Z,36.03
2018-03-21T23:55:37.657Z,35.78
2018-03-21T23:58:05.060Z,34.28
